Time;durP1;ratioP1;P1;durP2;ratioP2;P2;SDS_P1;SDS_P2;PMS_P1;PMS_P2;Temp;Humidity;BMP_temperature;BMP_pressure;BME280_temperature;BME280_humidity;BME280_pressure;Samples;Min_cycle;Max_cycle;Signal;HPM_P1;HPM_P2
2022/01/10 00:02:21;;;;;;;26.02;8.25;;;2.00;99.90;;;;;;4956608;28;20535;-88
2022/01/10 00:04:47;;;;;;;31.98;8.27;;;2.60;99.90;;;;;;4964809;28;20094;-86
2022/01/10 00:07:12;;;;;;;23.10;8.65;;;2.90;99.90;;;;;;4950759;28;20109;-88
2022/01/10 00:09:38;;;;;;;22.60;8.20;;;2.00;99.90;;;;;;4951814;28;20038;-88
2022/01/10 00:12:04;;;;;;;23.75;9.38;;;2.10;99.90;;;;;;4966019;28;20094;-87
2022/01/10 00:14:30;;;;;;;23.98;7.90;;;1.90;99.90;;;;;;4951911;28;20046;-88
2022/01/10 00:16:56;;;;;;;32.47;10.05;;;2.40;99.90;;;;;;4952684;28;20432;-88
2022/01/10 00:19:22;;;;;;;27.25;8.30;;;2.20;99.90;;;;;;4985398;28;20025;-88
2022/01/10 00:21:48;;;;;;;24.30;8.73;;;1.80;99.90;;;;;;4964276;28;20049;-88
2022/01/10 00:24:14;;;;;;;25.25;8.43;;;2.00;99.90;;;;;;4953177;28;20073;-88
2022/01/10 00:26:40;;;;;;;30.33;8.80;;;1.70;99.90;;;;;;4948574;28;20038;-87
2022/01/10 00:29:06;;;;;;;18.58;8.07;;;1.70;99.90;;;;;;4961465;28;20097;-87
2022/01/10 00:31:31;;;;;;;28.83;8.60;;;1.60;99.90;;;;;;4948540;28;20038;-87
2022/01/10 00:33:57;;;;;;;35.40;8.93;;;1.60;99.90;;;;;;4974037;28;20061;-87
2022/01/10 00:36:25;;;;;;;24.20;8.45;;;1.60;99.90;;;;;;4979902;28;20092;-87
2022/01/10 00:38:51;;;;;;;24.35;8.52;;;2.60;99.90;;;;;;4945879;28;20074;-87
2022/01/10 00:41:16;;;;;;;27.58;8.98;;;1.50;99.90;;;;;;4957454;28;20086;-87
2022/01/10 00:43:46;;;;;;;24.75;8.63;;;1.60;99.90;;;;;;4941493;28;20043;-88
2022/01/10 00:46:12;;;;;;;33.15;8.68;;;1.40;99.90;;;;;;4974186;28;20038;-87
2022/01/10 00:48:38;;;;;;;28.25;9.52;;;1.40;99.90;;;;;;4948520;28;20133;-88
2022/01/10 00:51:04;;;;;;;28.15;9.43;;;1.40;99.90;;;;;;4972874;28;20039;-88
2022/01/10 00:53:30;;;;;;;24.00;8.90;;;1.40;99.90;;;;;;4974503;28;20046;-88
2022/01/10 00:55:56;;;;;;;21.13;9.00;;;1.40;99.90;;;;;;4970376;28;20054;-88
2022/01/10 00:58:22;;;;;;;23.83;8.70;;;1.30;99.90;;;;;;4949004;28;20043;-88
2022/01/10 01:00:47;;;;;;;26.50;8.88;;;1.40;99.90;;;;;;4993266;28;20035;-87
2022/01/10 01:03:14;;;;;;;25.75;9.35;;;1.40;99.90;;;;;;4938293;28;20126;-87
2022/01/10 01:05:42;;;;;;;24.90;9.45;;;1.30;99.90;;;;;;4964417;28;20041;-87
2022/01/10 01:08:10;;;;;;;29.85;8.48;;;1.30;99.90;;;;;;4957508;28;20070;-87
2022/01/10 01:24:04;;;;;;;26.75;10.02;;;1.10;99.90;;;;;;4977467;28;20042;-87
2022/01/10 01:26:45;;;;;;;30.98;8.98;;;1.10;99.90;;;;;;4958089;28;20034;-87
2022/01/10 01:29:14;;;;;;;28.40;9.70;;;1.40;99.90;;;;;;4976806;28;20041;-87
2022/01/10 01:31:41;;;;;;;34.28;10.60;;;1.00;99.90;;;;;;4964440;28;20039;-87
2022/01/10 01:34:07;;;;;;;26.75;10.68;;;1.00;99.90;;;;;;4953189;28;20054;-87
2022/01/10 01:36:34;;;;;;;27.23;10.68;;;1.00;99.90;;;;;;4951347;28;20500;-87
2022/01/10 01:39:05;;;;;;;29.00;9.93;;;1.60;99.90;;;;;;4965093;28;20101;-87
2022/01/10 01:43:58;;;;;;;33.33;10.40;;;1.70;99.90;;;;;;4981378;28;20046;-87
2022/01/10 01:46:24;;;;;;;27.50;10.20;;;0.90;99.90;;;;;;4960832;28;20551;-87
2022/01/10 01:48:52;;;;;;;41.30;10.13;;;0.90;99.90;;;;;;4967623;28;20039;-87
2022/01/10 01:51:19;;;;;;;29.75;11.18;;;0.90;99.90;;;;;;4960307;28;20510;-87
2022/01/10 01:53:46;;;;;;;32.08;10.60;;;1.00;99.90;;;;;;4965546;28;20054;-87
2022/01/10 01:56:13;;;;;;;31.50;10.90;;;0.90;99.90;;;;;;4963707;28;20533;-87
2022/01/10 01:58:40;;;;;;;29.23;10.90;;;0.90;99.90;;;;;;4962036;28;20395;-87
2022/01/10 02:01:07;;;;;;;29.60;10.80;;;0.90;99.90;;;;;;4943183;28;20042;-87
2022/01/10 02:03:33;;;;;;;31.58;11.77;;;2.00;99.90;;;;;;4944333;28;20395;-87
2022/01/10 02:06:00;;;;;;;32.45;10.80;;;0.80;99.90;;;;;;4960977;28;20673;-87
2022/01/10 02:08:26;;;;;;;28.63;11.57;;;1.00;99.90;;;;;;4934939;28;20492;-87
2022/01/10 02:10:52;;;;;;;28.50;11.40;;;0.80;99.90;;;;;;4944661;28;20066;-87
2022/01/10 02:13:18;;;;;;;33.05;11.82;;;0.80;99.90;;;;;;4963340;28;20062;-88
2022/01/10 02:15:57;;;;;;;33.10;12.02;;;1.80;99.90;;;;;;4949497;28;20104;-87
2022/01/10 02:18:23;;;;;;;21.55;11.35;;;0.80;99.90;;;;;;4962132;28;20039;-87
2022/01/10 02:20:50;;;;;;;28.35;11.75;;;0.70;99.90;;;;;;4956241;28;20034;-87
2022/01/10 02:23:16;;;;;;;34.55;13.68;;;1.20;99.90;;;;;;4957934;28;20035;-87
2022/01/10 02:25:44;;;;;;;43.10;13.02;;;0.90;99.90;;;;;;4974573;28;20046;-87
2022/01/10 02:28:10;;;;;;;30.73;12.45;;;0.70;99.90;;;;;;4947209;28;20447;-87
2022/01/10 02:30:36;;;;;;;43.33;12.95;;;0.70;99.90;;;;;;4944403;28;20446;-87
2022/01/10 02:33:03;;;;;;;34.30;13.13;;;0.80;99.90;;;;;;4945794;28;20054;-88
2022/01/10 02:35:34;;;;;;;40.40;14.18;;;0.80;99.90;;;;;;4956371;28;20635;-87
2022/01/10 02:38:00;;;;;;;47.25;14.55;;;0.80;99.90;;;;;;4969223;28;20508;-87
2022/01/10 02:40:28;;;;;;;34.78;13.15;;;1.10;99.90;;;;;;4952943;28;20049;-87
2022/01/10 02:42:55;;;;;;;32.40;12.30;;;1.90;99.90;;;;;;4954135;28;20054;-87
2022/01/10 02:45:21;;;;;;;44.85;15.20;;;0.80;99.90;;;;;;4956181;28;20096;-87
2022/01/10 02:47:48;;;;;;;42.28;14.30;;;0.80;99.90;;;;;;4956953;28;20124;-87
2022/01/10 02:50:15;;;;;;;34.55;14.07;;;0.70;99.90;;;;;;4968591;28;20129;-87
2022/01/10 02:52:41;;;;;;;44.25;14.48;;;1.90;99.90;;;;;;4958136;28;20458;-87
2022/01/10 02:55:09;;;;;;;44.47;15.00;;;0.80;99.90;;;;;;4954701;28;20126;-87
2022/01/10 02:57:35;;;;;;;48.97;14.13;;;0.70;99.90;;;;;;4945042;28;20039;-88
2022/01/10 03:00:12;;;;;;;41.50;14.77;;;0.70;99.90;;;;;;4972566;28;20542;-87
2022/01/10 03:02:38;;;;;;;45.45;14.75;;;0.70;99.90;;;;;;4965512;28;20039;-87
2022/01/10 03:05:05;;;;;;;47.45;16.27;;;0.70;99.90;;;;;;4955174;28;20135;-87
2022/01/10 03:07:31;;;;;;;35.33;14.82;;;0.70;99.90;;;;;;4946494;28;20046;-87
2022/01/10 03:09:57;;;;;;;37.50;14.50;;;1.60;99.90;;;;;;4959771;28;20045;-87
2022/01/10 03:12:23;;;;;;;37.75;14.80;;;0.70;99.90;;;;;;4964769;28;20034;-87
2022/01/10 03:14:49;;;;;;;33.88;14.95;;;0.70;99.90;;;;;;4945899;28;20053;-87
2022/01/10 03:17:15;;;;;;;34.50;15.82;;;0.70;99.90;;;;;;4963842;28;20030;-87
2022/01/10 03:19:44;;;;;;;36.33;15.05;;;0.60;99.90;;;;;;4957000;28;20507;-87
2022/01/10 03:22:10;;;;;;;43.13;16.50;;;0.60;99.90;;;;;;4947002;28;20031;-87
2022/01/10 03:24:36;;;;;;;38.88;15.68;;;1.70;99.90;;;;;;4963401;28;20049;-87
2022/01/10 03:27:02;;;;;;;47.97;15.88;;;0.50;99.90;;;;;;4943155;28;20046;-88
2022/01/10 03:29:28;;;;;;;40.28;15.48;;;0.50;99.90;;;;;;4955928;28;20046;-87
2022/01/10 03:31:54;;;;;;;40.60;16.55;;;0.50;99.90;;;;;;4939976;28;20038;-87
2022/01/10 03:34:20;;;;;;;42.83;15.35;;;1.00;99.90;;;;;;4935610;29;20055;-87
2022/01/10 03:36:46;;;;;;;41.10;14.95;;;0.50;99.90;;;;;;4921143;29;20074;-87
2022/01/10 03:39:12;;;;;;;36.28;13.70;;;0.50;99.90;;;;;;4938690;29;20039;-87
2022/01/10 03:41:38;;;;;;;37.83;14.98;;;0.40;99.90;;;;;;4908843;29;20190;-87
2022/01/10 03:44:05;;;;;;;39.85;15.43;;;0.50;99.90;;;;;;4956286;28;20579;-87
2022/01/10 03:46:34;;;;;;;36.22;14.93;;;0.90;99.90;;;;;;4928929;29;20408;-87
2022/01/10 03:49:01;;;;;;;37.42;15.07;;;0.40;99.90;;;;;;4939466;29;20046;-87
2022/01/10 03:51:27;;;;;;;40.65;15.32;;;0.40;99.90;;;;;;4954436;28;20508;-87
2022/01/10 03:53:53;;;;;;;47.38;15.10;;;0.40;99.90;;;;;;4939305;28;20046;-87
2022/01/10 03:56:20;;;;;;;45.63;15.80;;;0.30;99.90;;;;;;4952895;29;20043;-87
2022/01/10 03:58:45;;;;;;;46.35;15.98;;;0.30;99.90;;;;;;4940776;29;20517;-87
2022/01/10 04:01:12;;;;;;;48.65;15.18;;;0.40;99.90;;;;;;4923060;29;20046;-87
2022/01/10 04:03:39;;;;;;;46.30;16.85;;;0.30;99.90;;;;;;4922408;28;20039;-87
2022/01/10 04:06:05;;;;;;;40.65;15.90;;;0.30;99.90;;;;;;4925424;29;20086;-87
2022/01/10 04:08:32;;;;;;;43.42;16.23;;;0.30;99.90;;;;;;4924132;29;20074;-87
2022/01/10 04:10:58;;;;;;;40.83;16.13;;;0.70;99.90;;;;;;4950538;29;20150;-87
2022/01/10 04:13:24;;;;;;;38.78;15.27;;;0.20;99.90;;;;;;4929095;28;20118;-87
2022/01/10 04:15:51;;;;;;;39.47;15.73;;;0.20;99.90;;;;;;4934471;29;20126;-87
2022/01/10 04:18:17;;;;;;;42.28;15.68;;;0.20;99.90;;;;;;4917483;28;20042;-87
2022/01/10 04:20:44;;;;;;;43.63;15.75;;;1.30;99.90;;;;;;4912621;29;20047;-87
2022/01/10 04:23:11;;;;;;;42.42;17.23;;;0.40;99.90;;;;;;4962816;28;20082;-87
2022/01/10 04:25:37;;;;;;;40.72;16.10;;;0.10;99.90;;;;;;4917057;29;20087;-87
2022/01/10 04:28:03;;;;;;;44.13;17.38;;;0.10;99.90;;;;;;4949991;28;20047;-87
2022/01/10 04:30:28;;;;;;;48.08;17.75;;;0.10;99.90;;;;;;4892206;29;20039;-87
2022/01/10 04:32:57;;;;;;;41.45;16.50;;;0.10;99.90;;;;;;4955537;28;20054;-87
2022/01/10 04:35:23;;;;;;;35.65;15.65;;;0.10;99.90;;;;;;4936291;28;20102;-87
2022/01/10 04:37:49;;;;;;;52.22;17.60;;;0.10;99.90;;;;;;4944343;28;20443;-87
2022/01/10 04:40:14;;;;;;;51.50;17.70;;;0.00;99.90;;;;;;4955020;28;20039;-86
2022/01/10 04:42:40;;;;;;;41.22;17.48;;;0.00;99.90;;;;;;4939155;28;20243;-87
2022/01/10 04:45:06;;;;;;;47.35;18.27;;;1.10;99.90;;;;;;4970957;28;20039;-87
2022/01/10 04:47:32;;;;;;;53.70;19.42;;;0.00;99.90;;;;;;4939151;28;20496;-86
2022/01/10 04:52:27;;;;;;;44.28;17.90;;;0.00;99.90;;;;;;4971433;28;20058;-87
2022/01/10 04:54:53;;;;;;;51.88;19.42;;;0.00;99.90;;;;;;4971037;28;20042;-87
2022/01/10 04:57:19;;;;;;;48.28;18.95;;;-0.10;99.90;;;;;;4972523;28;20405;-87
2022/01/10 04:59:45;;;;;;;51.67;18.83;;;0.70;99.90;;;;;;4980167;28;20066;-87
2022/01/10 05:02:11;;;;;;;59.38;21.73;;;1.00;99.90;;;;;;4976189;28;20122;-87
2022/01/10 05:04:37;;;;;;;46.30;20.42;;;-0.10;99.90;;;;;;4963419;28;20027;-87
2022/01/10 05:07:03;;;;;;;50.35;20.35;;;-0.10;99.90;;;;;;4980095;28;20034;-88
2022/01/10 05:09:29;;;;;;;47.88;21.13;;;-0.10;99.90;;;;;;4982450;28;20539;-87
2022/01/10 05:11:55;;;;;;;56.28;20.50;;;-0.10;99.90;;;;;;4983004;28;20050;-87
2022/01/10 05:14:21;;;;;;;45.97;21.27;;;-0.10;99.90;;;;;;4973638;28;20050;-87
2022/01/10 05:16:47;;;;;;;56.75;21.13;;;-0.10;99.90;;;;;;4925590;28;20066;-87
2022/01/10 05:19:13;;;;;;;52.25;21.52;;;1.10;99.90;;;;;;4971159;28;20074;-87
2022/01/10 05:21:39;;;;;;;60.72;23.92;;;0.10;99.90;;;;;;4955869;28;20049;-87
2022/01/10 05:24:05;;;;;;;56.33;23.23;;;-0.10;99.90;;;;;;4972261;28;20055;-87
2022/01/10 05:26:31;;;;;;;55.70;22.95;;;0.00;99.90;;;;;;4954474;28;20047;-87
2022/01/10 05:28:56;;;;;;;54.15;22.98;;;0.00;99.90;;;;;;4939081;28;20041;-87
2022/01/10 05:31:22;;;;;;;57.47;23.70;;;-0.10;99.90;;;;;;4938109;28;20085;-86
2022/01/10 05:33:49;;;;;;;51.05;23.25;;;1.00;99.90;;;;;;4954120;28;20440;-87
2022/01/10 05:36:15;;;;;;;56.95;23.92;;;-0.10;99.90;;;;;;4972912;28;20042;-87
2022/01/10 05:38:41;;;;;;;60.17;23.13;;;-0.10;99.90;;;;;;4953451;28;20050;-86
2022/01/10 05:41:07;;;;;;;52.65;24.30;;;-0.10;99.90;;;;;;4969816;28;20039;-87
2022/01/10 05:43:32;;;;;;;63.80;25.52;;;-0.20;99.90;;;;;;4937870;28;20086;-86
2022/01/10 05:45:58;;;;;;;67.50;24.20;;;-0.10;99.90;;;;;;4960396;29;20174;-87
2022/01/10 05:48:30;;;;;;;56.10;24.90;;;-0.20;99.90;;;;;;4962506;28;20042;-86
2022/01/10 05:50:56;;;;;;;55.83;25.83;;;-0.20;99.90;;;;;;4990066;28;20031;-86
2022/01/10 05:53:22;;;;;;;63.65;25.92;;;-0.20;99.90;;;;;;4994597;28;20065;-86
2022/01/10 05:55:48;;;;;;;63.67;27.00;;;-0.20;99.90;;;;;;4963184;28;20049;-86
2022/01/10 05:58:15;;;;;;;71.32;28.48;;;-0.20;99.90;;;;;;4995269;28;20039;-86
2022/01/10 06:00:41;;;;;;;64.35;28.83;;;-0.20;99.90;;;;;;4966327;28;20121;-87
2022/01/10 06:03:07;;;;;;;61.47;26.42;;;-0.20;99.90;;;;;;4950881;29;20492;-86
2022/01/10 06:05:33;;;;;;;62.53;29.67;;;-0.20;99.90;;;;;;4946765;28;20077;-86
2022/01/10 06:08:00;;;;;;;67.40;30.08;;;-0.20;99.90;;;;;;4953991;28;20063;-86
2022/01/10 06:10:27;;;;;;;62.95;28.63;;;-0.20;99.90;;;;;;4938782;28;20515;-86
2022/01/10 06:12:53;;;;;;;59.70;29.75;;;-0.30;99.90;;;;;;4970287;28;20039;-87
2022/01/10 06:15:20;;;;;;;66.05;30.08;;;-0.30;99.90;;;;;;4973391;28;20039;-86
2022/01/10 06:17:45;;;;;;;66.43;30.30;;;-0.30;99.90;;;;;;4943650;28;20050;-86
2022/01/10 06:20:11;;;;;;;67.35;29.25;;;-0.30;99.90;;;;;;4953630;28;20043;-86
2022/01/10 06:22:37;;;;;;;66.32;30.23;;;-0.30;99.90;;;;;;4937950;28;20043;-86
2022/01/10 06:25:05;;;;;;;75.63;31.65;;;-0.30;99.90;;;;;;4936799;28;20047;-86
2022/01/10 06:27:31;;;;;;;65.72;31.92;;;-0.30;99.90;;;;;;4953798;28;20070;-86
2022/01/10 06:29:57;;;;;;;69.05;30.90;;;-0.30;99.90;;;;;;4924134;28;20075;-86
2022/01/10 06:32:22;;;;;;;71.03;33.13;;;-0.30;99.90;;;;;;4953630;28;20412;-86
2022/01/10 06:34:48;;;;;;;77.25;33.83;;;-0.30;99.90;;;;;;4941946;28;20062;-86
2022/01/10 06:37:14;;;;;;;75.65;32.50;;;-0.30;99.90;;;;;;4936454;28;20043;-86
2022/01/10 06:39:40;;;;;;;63.03;30.42;;;-0.40;99.90;;;;;;4952804;28;20043;-86
2022/01/10 06:42:05;;;;;;;61.95;28.33;;;0.20;99.90;;;;;;4970322;28;20050;-86
2022/01/10 06:44:31;;;;;;;63.85;29.23;;;-0.40;99.90;;;;;;4940445;28;20039;-85
2022/01/10 06:46:57;;;;;;;64.43;30.88;;;-0.40;99.90;;;;;;4956812;28;20107;-88
2022/01/10 06:49:23;;;;;;;71.13;30.60;;;-0.50;99.90;;;;;;4944924;28;20038;-87
2022/01/10 06:51:49;;;;;;;72.63;33.70;;;-0.50;99.90;;;;;;4955536;28;20046;-87
2022/01/10 06:54:15;;;;;;;69.35;33.00;;;0.40;99.90;;;;;;4955419;28;20047;-87
2022/01/10 06:56:42;;;;;;;69.93;32.92;;;-0.50;99.90;;;;;;4940396;28;20756;-87
2022/01/10 06:59:08;;;;;;;65.18;31.85;;;0.60;99.90;;;;;;4954611;28;20467;-87
2022/01/10 07:01:34;;;;;;;67.45;31.15;;;-0.50;99.90;;;;;;4966834;28;20035;-88
2022/01/10 07:04:00;;;;;;;64.25;32.35;;;-0.60;99.90;;;;;;4940504;28;20039;-89
2022/01/10 07:06:26;;;;;;;63.03;31.50;;;-0.60;99.90;;;;;;4923258;28;20102;-87
2022/01/10 07:08:52;;;;;;;79.22;35.50;;;-0.50;99.90;;;;;;4937639;28;20041;-87
2022/01/10 07:11:17;;;;;;;73.13;35.33;;;-0.50;99.90;;;;;;4936891;28;20484;-86
2022/01/10 07:13:43;;;;;;;55.22;31.25;;;-0.50;99.90;;;;;;4945851;28;20038;-87
2022/01/10 07:16:09;;;;;;;73.85;33.53;;;-0.50;99.90;;;;;;4963452;28;20047;-87
2022/01/10 07:18:35;;;;;;;67.07;33.58;;;0.00;99.90;;;;;;4942388;28;20492;-87
2022/01/10 07:21:01;;;;;;;74.53;33.83;;;-0.60;99.90;;;;;;4941189;28;20416;-87
2022/01/10 07:23:26;;;;;;;74.75;33.70;;;-0.60;99.90;;;;;;4937993;28;20122;-88
2022/01/10 07:25:52;;;;;;;73.82;34.00;;;-0.50;99.90;;;;;;4930434;28;20506;-89
2022/01/10 07:28:18;;;;;;;77.50;34.72;;;-0.50;99.90;;;;;;4939964;28;20047;-87
2022/01/10 07:30:44;;;;;;;83.47;35.08;;;-0.50;99.90;;;;;;4961306;28;20053;-86
2022/01/10 07:33:10;;;;;;;78.28;35.45;;;0.00;99.90;;;;;;4929367;28;20141;-89
2022/01/10 07:35:36;;;;;;;83.47;37.58;;;-0.50;99.90;;;;;;4961603;28;20187;-86
2022/01/10 07:38:02;;;;;;;78.82;37.53;;;-0.50;99.90;;;;;;4950065;28;20046;-86
2022/01/10 07:40:27;;;;;;;79.13;37.03;;;-0.50;99.90;;;;;;4958377;28;20069;-87
2022/01/10 07:42:53;;;;;;;94.38;38.47;;;-0.50;99.90;;;;;;4943053;28;20034;-87
2022/01/10 07:45:19;;;;;;;84.40;35.95;;;-0.50;99.90;;;;;;4961857;28;20043;-90
2022/01/10 07:47:45;;;;;;;77.78;35.47;;;-0.50;99.90;;;;;;4942728;28;20108;-88
2022/01/10 07:50:11;;;;;;;84.40;35.45;;;-0.20;99.90;;;;;;4955763;28;20053;-89
2022/01/10 07:52:37;;;;;;;86.20;37.53;;;-0.50;99.90;;;;;;4940956;28;20038;-88
2022/01/10 07:55:04;;;;;;;73.65;35.92;;;-0.50;99.90;;;;;;4950663;28;20077;-90
2022/01/10 07:57:30;;;;;;;81.55;37.17;;;-0.10;99.90;;;;;;4954341;28;20042;-89
2022/01/10 07:59:56;;;;;;;81.00;37.60;;;-0.50;99.90;;;;;;4948240;28;20095;-89
2022/01/10 08:02:22;;;;;;;73.45;35.20;;;-0.50;99.90;;;;;;4940028;28;20481;-89
2022/01/10 08:04:48;;;;;;;83.07;33.90;;;-0.60;99.90;;;;;;4929650;28;20030;-90
2022/01/10 08:07:17;;;;;;;65.78;33.72;;;-0.60;99.90;;;;;;4954171;28;20074;-89
2022/01/10 08:09:43;;;;;;;67.03;32.65;;;-0.60;99.90;;;;;;4927091;28;20061;-91
2022/01/10 08:12:09;;;;;;;74.95;33.17;;;-0.60;99.90;;;;;;4941854;28;20089;-87
2022/01/10 08:14:35;;;;;;;70.45;32.28;;;-0.20;99.90;;;;;;4964113;28;20046;-92
2022/01/10 08:17:01;;;;;;;71.68;34.67;;;0.80;99.90;;;;;;4947647;28;20092;-88
2022/01/10 08:19:30;;;;;;;70.72;33.47;;;-0.10;99.90;;;;;;4946442;28;20902;-88
2022/01/10 08:21:56;;;;;;;71.07;33.63;;;-0.60;99.90;;;;;;4945903;28;20069;-95
2022/01/10 08:24:22;;;;;;;88.82;36.53;;;-0.60;99.90;;;;;;4954253;28;20041;-95
2022/01/10 08:26:53;;;;;;;74.40;34.53;;;-0.60;99.90;;;;;;4942763;28;20110;-92
2022/01/10 08:29:19;;;;;;;81.70;37.65;;;-0.60;99.90;;;;;;4947806;28;20050;-87
2022/01/10 08:31:46;;;;;;;65.55;33.90;;;-0.60;99.90;;;;;;4946860;28;20140;-88
2022/01/10 08:34:12;;;;;;;74.03;33.17;;;-0.60;99.90;;;;;;4930368;28;20050;-85
2022/01/10 08:36:38;;;;;;;68.35;33.67;;;-0.60;99.90;;;;;;4961760;28;20038;-84
2022/01/10 08:39:06;;;;;;;80.88;35.25;;;-0.50;99.90;;;;;;4943332;28;20054;-86
2022/01/10 08:41:35;;;;;;;90.40;38.53;;;-0.50;99.90;;;;;;4945941;28;20038;-85
2022/01/10 08:44:02;;;;;;;81.45;38.60;;;0.60;99.90;;;;;;4958644;28;20510;-88
2022/01/10 08:46:28;;;;;;;76.70;35.80;;;-0.40;99.90;;;;;;4939443;28;20518;-89
2022/01/10 08:48:54;;;;;;;86.72;39.05;;;-0.40;99.90;;;;;;4927845;28;20111;-85
2022/01/10 08:51:19;;;;;;;98.18;37.58;;;-0.30;99.90;;;;;;4931413;28;20081;-91
2022/01/10 08:53:45;;;;;;;92.35;38.80;;;-0.30;99.90;;;;;;4930706;28;20137;-92
2022/01/10 08:56:11;;;;;;;94.70;38.67;;;-0.10;99.90;;;;;;4946770;28;20444;-90
2022/01/10 08:58:37;;;;;;;91.97;40.55;;;-0.10;99.90;;;;;;4926171;28;20046;-89
2022/01/10 09:01:05;;;;;;;75.32;34.92;;;0.00;99.90;;;;;;4930076;28;20049;-89
2022/01/10 09:03:32;;;;;;;72.30;34.28;;;0.20;99.90;;;;;;4943799;28;20129;-90
2022/01/10 09:05:59;;;;;;;87.35;39.33;;;0.50;99.90;;;;;;4963462;28;20070;-90
2022/01/10 09:08:32;;;;;;;58.90;31.38;;;2.20;99.90;;;;;;4930619;28;20084;-91
2022/01/10 09:10:58;;;;;;;44.67;25.05;;;1.60;99.90;;;;;;4944418;28;20121;-89
2022/01/10 09:13:24;;;;;;;50.58;22.65;;;2.00;99.90;;;;;;4928329;28;20046;-89
2022/01/10 09:15:50;;;;;;;43.08;22.30;;;2.50;99.90;;;;;;4963951;28;20073;-89
2022/01/10 09:18:17;;;;;;;259.95;61.00;;;3.90;99.90;;;;;;4961932;28;20044;-88
2022/01/10 09:20:44;;;;;;;175.13;41.63;;;3.40;99.90;;;;;;4946044;28;20120;-88
2022/01/10 09:23:10;;;;;;;1999.90;412.88;;;4.00;99.90;;;;;;4945089;28;20042;-86
2022/01/10 09:25:36;;;;;;;103.50;27.05;;;4.80;99.90;;;;;;4947041;28;20046;-86
2022/01/10 09:28:02;;;;;;;879.38;157.15;;;5.10;99.90;;;;;;4914986;28;20052;-85
2022/01/10 09:30:28;;;;;;;30.77;16.33;;;5.40;99.90;;;;;;4943823;28;20153;-90
2022/01/10 09:32:54;;;;;;;65.82;26.35;;;5.40;99.90;;;;;;4944978;28;20042;-90
2022/01/10 09:35:21;;;;;;;32.00;18.27;;;5.50;99.90;;;;;;4961197;28;20057;-90
2022/01/10 09:37:47;;;;;;;26.55;16.73;;;5.70;99.90;;;;;;4943712;28;20130;-90
2022/01/10 09:40:13;;;;;;;24.55;16.42;;;5.00;99.90;;;;;;4929909;28;20069;-90
2022/01/10 09:42:40;;;;;;;28.60;17.25;;;5.10;99.90;;;;;;4928867;28;20038;-88
2022/01/10 09:45:07;;;;;;;31.25;17.55;;;4.80;99.90;;;;;;4929448;28;20112;-90
2022/01/10 09:47:33;;;;;;;29.90;17.15;;;4.70;99.90;;;;;;4913881;28;20558;-87
2022/01/10 09:49:59;;;;;;;32.92;17.92;;;4.60;99.90;;;;;;4945716;28;20049;-90
2022/01/10 09:52:25;;;;;;;27.40;16.77;;;4.70;99.90;;;;;;4943518;28;20034;-89
2022/01/10 09:54:53;;;;;;;29.63;17.25;;;4.80;99.90;;;;;;4945133;28;20042;-90
2022/01/10 09:57:22;;;;;;;40.83;20.13;;;4.90;99.90;;;;;;4945084;28;20498;-91
2022/01/10 09:59:48;;;;;;;30.55;17.90;;;4.20;99.90;;;;;;4943816;28;20073;-88
2022/01/10 10:02:15;;;;;;;31.25;18.85;;;4.00;99.90;;;;;;4943779;28;21794;-89
2022/01/10 10:04:42;;;;;;;31.58;18.83;;;4.10;99.90;;;;;;4943828;28;20049;-89
2022/01/10 10:07:08;;;;;;;28.25;17.20;;;4.00;99.90;;;;;;4960677;28;20068;-88
2022/01/10 10:09:35;;;;;;;32.13;19.20;;;4.10;99.90;;;;;;4960666;28;20212;-89
2022/01/10 10:12:03;;;;;;;32.20;18.55;;;4.60;99.90;;;;;;4945537;28;20108;-89
2022/01/10 10:14:30;;;;;;;33.42;19.55;;;4.00;99.90;;;;;;4944077;28;20042;-88
2022/01/10 10:16:57;;;;;;;48.08;20.95;;;4.90;99.90;;;;;;4933645;28;20081;-89
2022/01/10 10:19:32;;;;;;;29.88;18.45;;;4.10;99.90;;;;;;4965255;28;20108;-89
2022/01/10 10:21:59;;;;;;;26.73;17.80;;;4.90;99.90;;;;;;4934139;28;20034;-89
2022/01/10 10:24:26;;;;;;;31.52;18.08;;;4.30;99.90;;;;;;4945723;28;20042;-88
2022/01/10 10:26:52;;;;;;;36.50;20.33;;;5.10;99.90;;;;;;4944546;28;20458;-89
2022/01/10 10:29:19;;;;;;;35.05;20.13;;;4.30;99.90;;;;;;4942536;28;20050;-88
2022/01/10 10:31:46;;;;;;;35.10;21.00;;;4.30;99.90;;;;;;4948333;28;20042;-89
2022/01/10 10:34:20;;;;;;;33.53;20.13;;;4.30;99.90;;;;;;4962269;28;20723;-88
2022/01/10 10:37:02;;;;;;;37.90;21.65;;;4.80;99.90;;;;;;4960816;28;20679;-88
2022/01/10 10:39:30;;;;;;;32.20;19.27;;;5.00;99.90;;;;;;4941481;28;20054;-87
2022/01/10 10:41:59;;;;;;;28.65;18.85;;;5.50;99.90;;;;;;4930294;28;20117;-89
2022/01/10 10:44:26;;;;;;;34.20;20.17;;;5.00;99.90;;;;;;4960448;28;20056;-89
2022/01/10 10:46:52;;;;;;;34.35;20.88;;;5.60;99.90;;;;;;4961104;28;20042;-89
2022/01/10 10:49:20;;;;;;;34.63;19.95;;;5.00;99.90;;;;;;4930479;28;20038;-89
2022/01/10 10:51:51;;;;;;;30.55;18.98;;;4.90;99.90;;;;;;4946890;28;20992;-88
2022/01/10 10:54:18;;;;;;;33.17;18.80;;;4.80;99.90;;;;;;4945791;28;20041;-92
2022/01/10 10:56:45;;;;;;;38.63;20.98;;;4.70;99.90;;;;;;4960844;28;20049;-88
2022/01/10 10:59:11;;;;;;;31.25;19.88;;;4.60;99.90;;;;;;4927799;28;20386;-88
2022/01/10 11:01:42;;;;;;;31.63;18.27;;;4.70;99.90;;;;;;4928942;28;20042;-88
2022/01/10 11:04:09;;;;;;;34.72;19.55;;;5.00;99.90;;;;;;4933623;28;20122;-88
2022/01/10 11:06:36;;;;;;;35.40;19.88;;;4.60;99.90;;;;;;4963876;28;20046;-88
2022/01/10 11:09:06;;;;;;;37.58;20.95;;;4.60;99.90;;;;;;4932977;28;20039;-88
2022/01/10 11:11:32;;;;;;;44.90;23.42;;;5.60;99.90;;;;;;4970666;28;20051;-88
2022/01/10 11:14:00;;;;;;;40.05;20.33;;;4.80;99.90;;;;;;4973682;28;20035;-89
2022/01/10 11:16:27;;;;;;;31.08;20.80;;;4.80;99.90;;;;;;4975342;28;20026;-88
2022/01/10 11:18:54;;;;;;;39.08;20.73;;;5.00;99.90;;;;;;4960641;28;20027;-89
2022/01/10 11:21:23;;;;;;;35.65;19.80;;;6.10;99.90;;;;;;4960035;28;20045;-88
2022/01/10 11:23:50;;;;;;;37.35;19.88;;;5.60;99.90;;;;;;4974813;28;20054;-88
2022/01/10 11:26:17;;;;;;;32.10;20.15;;;5.10;99.90;;;;;;4981344;28;20055;-88
2022/01/10 11:28:54;;;;;;;36.47;19.17;;;5.90;99.90;;;;;;4951529;28;20034;-88
2022/01/10 11:31:23;;;;;;;35.10;18.35;;;4.90;99.90;;;;;;4967340;28;20039;-89
2022/01/10 11:33:54;;;;;;;35.15;18.55;;;5.10;99.90;;;;;;4951810;28;20049;-88
2022/01/10 11:36:23;;;;;;;35.92;20.23;;;4.60;99.90;;;;;;4968971;28;20066;-88
2022/01/10 11:38:55;;;;;;;35.25;19.23;;;4.60;99.90;;;;;;4937223;28;20065;-90
2022/01/10 11:41:29;;;;;;;28.40;18.17;;;4.60;99.90;;;;;;4969533;28;20042;-89
2022/01/10 11:44:06;;;;;;;38.00;20.02;;;5.10;99.90;;;;;;4949608;28;20133;-89
2022/01/10 11:46:47;;;;;;;41.25;21.23;;;4.50;99.90;;;;;;4961560;28;20511;-88
2022/01/10 11:49:13;;;;;;;42.05;24.42;;;4.50;99.90;;;;;;4936614;28;20548;-87
2022/01/10 11:51:51;;;;;;;31.83;21.42;;;4.90;99.90;;;;;;4945772;28;20137;-87
2022/01/10 11:54:28;;;;;;;37.08;22.40;;;4.50;99.90;;;;;;4963427;28;20610;-86
2022/01/10 11:57:03;;;;;;;39.88;21.65;;;4.50;99.90;;;;;;4948206;28;20070;-86
2022/01/10 11:59:36;;;;;;;43.08;23.95;;;4.50;99.90;;;;;;4946804;28;20500;-85
2022/01/10 12:02:12;;;;;;;39.45;24.00;;;4.50;99.90;;;;;;4947676;28;20043;-85
2022/01/10 12:04:42;;;;;;;45.15;24.52;;;4.50;99.90;;;;;;4961752;28;20058;-84
2022/01/10 12:07:10;;;;;;;41.97;23.67;;;4.50;99.90;;;;;;4961417;28;20043;-86
2022/01/10 12:09:37;;;;;;;38.97;23.23;;;4.50;99.90;;;;;;4931173;28;20050;-85
2022/01/10 12:12:04;;;;;;;42.38;24.58;;;4.50;99.90;;;;;;4948102;28;20039;-87
2022/01/10 12:14:31;;;;;;;38.40;23.45;;;4.50;99.90;;;;;;4945090;28;20042;-86
2022/01/10 12:16:59;;;;;;;37.75;22.67;;;4.50;99.90;;;;;;4932936;28;20166;-84
2022/01/10 12:19:26;;;;;;;42.47;23.25;;;4.60;99.90;;;;;;4944287;28;20051;-84
2022/01/10 12:21:52;;;;;;;39.45;23.20;;;4.60;99.90;;;;;;4943748;28;20043;-85
2022/01/10 12:24:18;;;;;;;39.38;22.45;;;5.20;99.90;;;;;;4964978;28;20610;-88
2022/01/10 12:26:45;;;;;;;37.83;21.88;;;4.70;99.90;;;;;;4947070;28;20050;-86
2022/01/10 12:29:12;;;;;;;45.63;22.92;;;4.70;99.90;;;;;;4934572;28;20066;-86
2022/01/10 12:31:39;;;;;;;38.45;21.67;;;5.10;99.90;;;;;;4963603;28;20557;-86
2022/01/10 12:34:08;;;;;;;39.15;21.27;;;4.90;99.90;;;;;;4948086;28;20089;-86
2022/01/10 12:36:36;;;;;;;31.17;20.15;;;5.10;99.90;;;;;;4930131;28;20074;-87
2022/01/10 12:39:04;;;;;;;38.60;20.27;;;5.20;99.90;;;;;;4960932;28;20505;-87
2022/01/10 12:41:31;;;;;;;36.03;22.25;;;5.20;99.90;;;;;;4962827;28;20043;-87
2022/01/10 12:43:57;;;;;;;36.17;19.85;;;5.20;99.90;;;;;;4944683;28;20053;-87
2022/01/10 12:46:24;;;;;;;37.83;20.42;;;6.00;99.90;;;;;;4959580;28;20097;-86
2022/01/10 12:48:51;;;;;;;32.17;20.40;;;6.10;99.90;;;;;;4962605;28;20047;-86
2022/01/10 12:51:19;;;;;;;35.15;20.02;;;5.30;99.90;;;;;;4958863;28;20039;-86
2022/01/10 12:53:51;;;;;;;32.65;19.00;;;5.40;99.90;;;;;;4957992;28;20070;-86